Time;durP1;ratioP1;P1;durP2;ratioP2;P2;SDS_P1;SDS_P2;PMS_P1;PMS_P2;Temp;Humidity;BMP_temperature;BMP_pressure;BME280_temperature;BME280_humidity;BME280_pressure;Samples;Min_cycle;Max_cycle;Signal;HPM_P1;HPM_P2
2022/06/04 00:01:54;;;;;;;21.87;14.23;;;;;;;;;;4856126;29;20570;-63
2022/06/04 00:04:21;;;;;;;21.57;14.43;;;;;;;;;;4857405;29;20190;-63
2022/06/04 00:06:48;;;;;;;32.87;18.40;;;;;;;;;;4857083;29;20662;-63
2022/06/04 00:09:15;;;;;;;25.93;16.90;;;;;;;;;;4857455;29;20198;-66
2022/06/04 00:17:13;;;;;;;32.00;18.27;;;;;;;;;;4856929;29;20205;-63
2022/06/04 00:19:57;;;;;;;27.30;17.40;;;;;;;;;;4855741;29;20202;-62
2022/06/04 00:22:24;;;;;;;26.57;16.67;;;;;;;;;;4856153;29;20217;-62
2022/06/04 00:25:09;;;;;;;25.33;16.07;;;;;;;;;;4858232;29;20658;-63
2022/06/04 00:27:36;;;;;;;24.07;15.23;;;;;;;;;;4855324;29;20205;-63
2022/06/04 00:30:20;;;;;;;27.70;16.13;;;;;;;;;;4849294;29;20304;-63
2022/06/04 00:32:47;;;;;;;24.17;16.60;;;;;;;;;;4839842;29;20542;-63
2022/06/04 00:35:14;;;;;;;21.73;15.07;;;;;;;;;;4834963;29;20673;-63
2022/06/04 00:37:40;;;;;;;32.90;16.20;;;;;;;;;;4854941;29;20190;-63
2022/06/04 00:40:08;;;;;;;24.20;16.93;;;;;;;;;;4856678;29;20209;-63
2022/06/04 00:42:34;;;;;;;26.77;16.70;;;;;;;;;;4838742;29;20221;-63
2022/06/04 00:45:19;;;;;;;23.27;15.07;;;;;;;;;;4856755;29;20216;-63
2022/06/04 00:47:46;;;;;;;26.87;15.30;;;;;;;;;;4854506;29;20202;-63
2022/06/04 00:50:14;;;;;;;20.57;14.00;;;;;;;;;;4856116;29;20185;-63
2022/06/04 00:52:41;;;;;;;23.00;14.90;;;;;;;;;;4855854;29;20208;-63
2022/06/04 00:55:08;;;;;;;21.70;14.40;;;;;;;;;;4855580;29;20285;-63
2022/06/04 00:57:53;;;;;;;22.67;14.30;;;;;;;;;;4855359;29;20198;-63
2022/06/04 01:00:30;;;;;;;20.63;14.70;;;;;;;;;;4851405;29;20201;-64
2022/06/04 01:03:00;;;;;;;22.33;15.07;;;;;;;;;;4847489;29;20228;-63
2022/06/04 01:05:29;;;;;;;22.17;14.93;;;;;;;;;;4838600;29;20194;-63
2022/06/04 01:08:08;;;;;;;19.13;15.13;;;;;;;;;;4836677;29;20214;-62
2022/06/04 01:10:54;;;;;;;39.47;15.20;;;;;;;;;;4836714;29;20982;-63
2022/06/04 01:13:23;;;;;;;24.27;15.93;;;;;;;;;;4839560;29;20200;-63
2022/06/04 01:16:26;;;;;;;24.33;14.80;;;;;;;;;;4855544;29;20225;-64
2022/06/04 01:18:56;;;;;;;24.87;14.17;;;;;;;;;;4868847;29;20204;-63
2022/06/04 01:21:25;;;;;;;24.27;14.57;;;;;;;;;;4861055;29;20212;-64
2022/06/04 01:23:52;;;;;;;24.43;14.83;;;;;;;;;;4860401;29;20201;-63
2022/06/04 01:26:22;;;;;;;24.30;14.20;;;;;;;;;;4858407;29;20292;-63
2022/06/04 01:28:58;;;;;;;22.43;13.67;;;;;;;;;;4861151;29;20201;-63
2022/06/04 01:31:29;;;;;;;19.40;13.13;;;;;;;;;;4844988;29;20213;-63
2022/06/04 01:33:57;;;;;;;18.63;13.03;;;;;;;;;;4841184;29;20209;-63
2022/06/04 01:36:28;;;;;;;25.70;14.90;;;;;;;;;;4863344;29;20670;-63
2022/06/04 01:38:56;;;;;;;22.70;14.93;;;;;;;;;;4853762;29;20243;-63
2022/06/04 01:41:25;;;;;;;20.53;13.53;;;;;;;;;;4865929;29;20651;-63
2022/06/04 01:43:55;;;;;;;21.90;14.50;;;;;;;;;;4859017;29;20719;-63
2022/06/04 01:46:25;;;;;;;22.63;14.80;;;;;;;;;;4859887;29;20201;-62
2022/06/04 01:48:53;;;;;;;19.17;14.17;;;;;;;;;;4846474;29;20281;-64
2022/06/04 01:51:20;;;;;;;22.17;15.10;;;;;;;;;;4839681;29;20198;-63
2022/06/04 01:53:47;;;;;;;26.83;16.87;;;;;;;;;;4853964;29;20204;-63
2022/06/04 01:56:16;;;;;;;28.03;17.27;;;;;;;;;;4849611;29;20208;-62
2022/06/04 01:58:50;;;;;;;22.37;15.17;;;;;;;;;;4856899;29;21008;-65
2022/06/04 02:01:18;;;;;;;19.97;14.60;;;;;;;;;;4836897;29;20200;-63
2022/06/04 02:03:46;;;;;;;20.43;14.27;;;;;;;;;;4851065;29;20248;-63
2022/06/04 02:06:39;;;;;;;21.63;14.53;;;;;;;;;;4860228;29;20208;-63
2022/06/04 02:09:10;;;;;;;20.47;13.97;;;;;;;;;;4868624;29;20227;-63
2022/06/04 02:11:37;;;;;;;21.40;14.87;;;;;;;;;;4859777;29;20205;-62
2022/06/04 02:14:05;;;;;;;23.67;15.07;;;;;;;;;;4843797;29;20677;-64
2022/06/04 02:16:33;;;;;;;22.07;15.80;;;;;;;;;;4842240;29;20202;-63
2022/06/04 02:19:00;;;;;;;22.00;15.37;;;;;;;;;;4851767;29;20274;-63
2022/06/04 02:21:27;;;;;;;23.43;15.37;;;;;;;;;;4866046;29;20856;-63
2022/06/04 02:24:12;;;;;;;23.33;15.43;;;;;;;;;;4867577;29;20269;-63
2022/06/04 02:26:41;;;;;;;24.37;16.10;;;;;;;;;;4857703;29;20201;-63
2022/06/04 02:29:07;;;;;;;23.60;16.50;;;;;;;;;;4854345;29;20205;-63
2022/06/04 02:31:38;;;;;;;23.67;16.57;;;;;;;;;;4857718;29;20206;-63
2022/06/04 02:34:10;;;;;;;23.17;15.97;;;;;;;;;;4856728;29;20246;-63
2022/06/04 02:36:57;;;;;;;21.63;14.30;;;;;;;;;;4866972;29;20205;-63
2022/06/04 02:39:24;;;;;;;24.20;15.73;;;;;;;;;;4866369;29;20200;-63
2022/06/04 02:41:52;;;;;;;22.80;16.37;;;;;;;;;;4867491;29;20248;-63
2022/06/04 02:44:26;;;;;;;25.13;16.50;;;;;;;;;;4839349;29;20276;-63
2022/06/04 02:47:11;;;;;;;29.60;15.37;;;;;;;;;;4849032;29;21630;-63
2022/06/04 02:49:40;;;;;;;19.13;13.50;;;;;;;;;;4859188;29;20534;-64
2022/06/04 02:52:08;;;;;;;21.63;15.73;;;;;;;;;;4850098;29;20670;-63
2022/06/04 02:54:44;;;;;;;19.73;14.87;;;;;;;;;;4863118;29;20213;-63
2022/06/04 02:57:29;;;;;;;21.27;14.63;;;;;;;;;;4855650;29;20538;-63
2022/06/04 02:59:56;;;;;;;19.77;14.17;;;;;;;;;;4859290;29;20196;-63
2022/06/04 03:02:23;;;;;;;18.90;13.70;;;;;;;;;;4850514;29;20264;-63
2022/06/04 03:04:51;;;;;;;20.73;13.87;;;;;;;;;;4850087;29;20233;-62
2022/06/04 03:07:18;;;;;;;22.63;15.40;;;;;;;;;;4846943;29;20216;-63
2022/06/04 03:09:45;;;;;;;24.47;16.13;;;;;;;;;;4859626;29;20300;-63
2022/06/04 03:12:14;;;;;;;20.63;15.13;;;;;;;;;;4853725;29;20197;-63
2022/06/04 03:14:58;;;;;;;24.00;15.70;;;;;;;;;;4865486;29;20570;-63
2022/06/04 03:17:25;;;;;;;22.00;16.47;;;;;;;;;;4866133;29;20204;-63
2022/06/04 03:19:53;;;;;;;22.70;16.47;;;;;;;;;;4863126;29;21083;-63
2022/06/04 03:22:19;;;;;;;22.93;16.07;;;;;;;;;;4854520;29;20227;-63
2022/06/04 03:24:46;;;;;;;21.37;15.20;;;;;;;;;;4860273;29;20194;-62
2022/06/04 03:27:12;;;;;;;20.60;15.90;;;;;;;;;;4859422;29;20198;-63
2022/06/04 03:29:39;;;;;;;19.37;15.37;;;;;;;;;;4861212;29;20197;-64
2022/06/04 03:32:06;;;;;;;20.87;15.17;;;;;;;;;;4859686;29;20202;-63
2022/06/04 03:34:33;;;;;;;20.63;15.27;;;;;;;;;;4871436;29;20196;-63
2022/06/04 03:37:00;;;;;;;22.37;15.37;;;;;;;;;;4875893;29;20197;-63
2022/06/04 03:39:29;;;;;;;18.97;14.17;;;;;;;;;;4860473;29;20204;-63
2022/06/04 03:41:55;;;;;;;19.60;13.23;;;;;;;;;;4874077;29;20236;-63
2022/06/04 03:44:22;;;;;;;19.87;13.33;;;;;;;;;;4843363;29;20586;-63
2022/06/04 03:47:06;;;;;;;18.53;13.13;;;;;;;;;;4860605;29;20181;-63
2022/06/04 03:49:33;;;;;;;17.03;13.07;;;;;;;;;;4860173;29;20542;-63
2022/06/04 03:52:01;;;;;;;16.97;12.97;;;;;;;;;;4871883;29;20186;-63
2022/06/04 04:00:02;;;;;;;19.00;13.23;;;;;;;;;;4859072;29;20201;-63
2022/06/04 04:02:38;;;;;;;18.67;12.77;;;;;;;;;;4852473;29;20774;-63
2022/06/04 04:05:05;;;;;;;17.50;12.10;;;;;;;;;;4867559;29;20230;-63
2022/06/04 04:07:32;;;;;;;20.70;12.77;;;;;;;;;;4870694;29;20197;-64
2022/06/04 04:09:58;;;;;;;20.23;12.67;;;;;;;;;;4867624;29;20208;-64
2022/06/04 04:12:25;;;;;;;16.27;12.47;;;;;;;;;;4863983;29;20189;-63
2022/06/04 04:14:53;;;;;;;20.93;13.20;;;;;;;;;;4862443;29;20193;-65
2022/06/04 04:17:20;;;;;;;16.53;12.57;;;;;;;;;;4862458;29;20204;-63
2022/06/04 04:19:47;;;;;;;17.37;12.00;;;;;;;;;;4862070;29;20209;-63
2022/06/04 04:22:13;;;;;;;16.37;11.77;;;;;;;;;;4868129;29;20680;-64
2022/06/04 04:24:40;;;;;;;15.87;12.00;;;;;;;;;;4876364;29;20193;-63
2022/06/04 04:27:07;;;;;;;15.73;11.30;;;;;;;;;;4867707;29;20210;-63
2022/06/04 04:29:33;;;;;;;16.13;12.07;;;;;;;;;;4858453;29;20696;-64
2022/06/04 04:32:00;;;;;;;13.53;11.20;;;;;;;;;;4848436;29;21031;-63
2022/06/04 04:34:27;;;;;;;19.47;11.73;;;;;;;;;;4869120;29;20215;-63
2022/06/04 04:36:53;;;;;;;14.33;11.30;;;;;;;;;;4874353;29;20252;-63
2022/06/04 04:39:20;;;;;;;14.17;11.20;;;;;;;;;;4865674;29;20197;-63
2022/06/04 04:41:51;;;;;;;16.13;12.63;;;;;;;;;;4865778;29;20245;-63
2022/06/04 04:44:17;;;;;;;17.03;12.07;;;;;;;;;;4868053;29;20637;-64
2022/06/04 04:46:44;;;;;;;16.37;11.33;;;;;;;;;;4870681;29;20848;-64
2022/06/04 04:49:11;;;;;;;13.50;10.60;;;;;;;;;;4864768;29;20205;-63
2022/06/04 04:51:37;;;;;;;15.90;10.80;;;;;;;;;;4862522;29;20217;-64
2022/06/04 04:54:04;;;;;;;15.30;9.70;;;;;;;;;;4869196;29;20267;-64
2022/06/04 04:56:31;;;;;;;12.17;9.10;;;;;;;;;;4842171;29;20523;-63
2022/06/04 04:58:57;;;;;;;14.33;9.97;;;;;;;;;;4866568;29;20258;-64
2022/06/04 05:01:25;;;;;;;14.13;9.70;;;;;;;;;;4873298;29;20213;-64
2022/06/04 05:03:52;;;;;;;15.43;9.53;;;;;;;;;;4869283;29;20217;-63
2022/06/04 05:06:24;;;;;;;13.80;10.40;;;;;;;;;;4858518;29;22119;-63
2022/06/04 05:08:53;;;;;;;15.47;10.67;;;;;;;;;;4871579;29;20259;-64
2022/06/04 05:11:21;;;;;;;13.70;9.80;;;;;;;;;;4872942;29;20327;-64
2022/06/04 05:13:49;;;;;;;12.87;9.53;;;;;;;;;;4858613;29;20202;-64
2022/06/04 05:16:34;;;;;;;11.03;7.37;;;;;;;;;;4856812;29;20767;-65
2022/06/04 05:19:01;;;;;;;12.10;7.40;;;;;;;;;;4864959;29;20197;-63
2022/06/04 05:21:47;;;;;;;6.83;4.00;;;;;;;;;;4856254;29;20214;-63
2022/06/04 05:24:15;;;;;;;5.33;3.43;;;;;;;;;;4844324;29;20235;-63
2022/06/04 05:27:01;;;;;;;4.30;3.20;;;;;;;;;;4853337;29;20304;-63
2022/06/04 05:29:29;;;;;;;6.40;3.20;;;;;;;;;;4869429;29;20601;-63
2022/06/04 05:31:57;;;;;;;7.30;2.80;;;;;;;;;;4852751;29;20215;-63
2022/06/04 05:34:24;;;;;;;5.93;2.70;;;;;;;;;;4854094;29;20208;-65
2022/06/04 05:36:53;;;;;;;4.83;2.80;;;;;;;;;;4861143;29;20201;-63
2022/06/04 05:39:22;;;;;;;6.17;2.60;;;;;;;;;;4869234;29;20204;-63
2022/06/04 05:41:49;;;;;;;4.07;2.60;;;;;;;;;;4862254;29;20760;-63
2022/06/04 05:44:16;;;;;;;6.53;2.87;;;;;;;;;;4865956;29;20315;-63
2022/06/04 05:46:42;;;;;;;5.47;2.67;;;;;;;;;;4864987;29;20275;-63
2022/06/04 05:49:17;;;;;;;5.00;3.00;;;;;;;;;;4856289;29;20194;-63
2022/06/04 05:51:44;;;;;;;5.57;3.00;;;;;;;;;;4849105;29;20197;-61
2022/06/04 05:54:10;;;;;;;6.00;3.20;;;;;;;;;;4855391;29;20201;-54
2022/06/04 05:56:39;;;;;;;5.83;3.10;;;;;;;;;;4854863;29;20202;-54
2022/06/04 05:59:06;;;;;;;5.53;2.70;;;;;;;;;;4862914;29;20542;-57
2022/06/04 06:01:33;;;;;;;7.73;3.50;;;;;;;;;;4863278;29;20205;-56
2022/06/04 06:04:01;;;;;;;5.83;3.10;;;;;;;;;;4873164;29;20283;-69
2022/06/04 06:06:29;;;;;;;5.20;2.97;;;;;;;;;;4838825;29;20205;-66
2022/06/04 06:08:59;;;;;;;7.47;3.37;;;;;;;;;;4865090;29;20207;-66
2022/06/04 06:11:25;;;;;;;6.43;3.10;;;;;;;;;;4862992;29;20192;-67
2022/06/04 06:13:52;;;;;;;6.37;3.07;;;;;;;;;;4858000;29;20213;-67
2022/06/04 06:16:20;;;;;;;5.37;3.10;;;;;;;;;;4862103;29;20201;-66
2022/06/04 06:18:47;;;;;;;8.53;3.33;;;;;;;;;;4842439;29;20208;-67
2022/06/04 06:21:14;;;;;;;7.73;3.23;;;;;;;;;;4853335;29;20209;-67
2022/06/04 06:23:41;;;;;;;4.93;3.27;;;;;;;;;;4843026;29;20225;-67
2022/06/04 06:26:11;;;;;;;9.03;2.80;;;;;;;;;;4812446;29;20241;-68
2022/06/04 06:28:39;;;;;;;7.57;2.70;;;;;;;;;;4844595;29;20209;-67
2022/06/04 06:31:06;;;;;;;3.27;2.70;;;;;;;;;;4858182;29;20272;-67
2022/06/04 06:33:33;;;;;;;5.83;3.27;;;;;;;;;;4855783;29;20217;-67
2022/06/04 06:36:00;;;;;;;4.67;2.70;;;;;;;;;;4855754;29;20606;-67
2022/06/04 06:38:27;;;;;;;3.40;2.73;;;;;;;;;;4851632;29;20926;-70
2022/06/04 06:41:13;;;;;;;7.93;2.60;;;;;;;;;;4853270;29;20582;-70
2022/06/04 06:43:52;;;;;;;7.20;3.10;;;;;;;;;;4847745;29;20228;-68
2022/06/04 06:46:20;;;;;;;7.93;3.40;;;;;;;;;;4854313;29;20201;-70
2022/06/04 06:48:49;;;;;;;3.70;2.47;;;;;;;;;;4853030;29;20212;-64
2022/06/04 06:51:17;;;;;;;4.17;2.60;;;;;;;;;;4836599;29;20205;-65
2022/06/04 06:53:44;;;;;;;6.03;3.10;;;;;;;;;;4850087;29;20806;-65
2022/06/04 06:56:12;;;;;;;7.67;3.87;;;;;;;;;;4850697;29;20966;-66
2022/06/04 06:58:38;;;;;;;9.33;3.57;;;;;;;;;;4828430;29;20301;-66
2022/06/04 07:01:05;;;;;;;5.63;3.03;;;;;;;;;;4856337;29;20344;-65
2022/06/04 07:03:34;;;;;;;6.67;3.13;;;;;;;;;;4820657;29;20229;-70
2022/06/04 07:06:01;;;;;;;6.30;3.30;;;;;;;;;;4852762;29;20196;-68
2022/06/04 07:08:28;;;;;;;7.83;3.40;;;;;;;;;;4848781;29;20201;-67
2022/06/04 07:10:55;;;;;;;8.13;3.13;;;;;;;;;;4854173;29;20225;-66
2022/06/04 07:13:22;;;;;;;5.20;2.97;;;;;;;;;;4856535;29;20631;-68
2022/06/04 07:15:49;;;;;;;5.17;2.90;;;;;;;;;;4858033;29;20268;-69
2022/06/04 07:18:16;;;;;;;6.03;3.17;;;;;;;;;;4848923;29;20208;-68
2022/06/04 07:20:43;;;;;;;7.13;3.40;;;;;;;;;;4849115;29;20192;-69
2022/06/04 07:23:10;;;;;;;5.10;3.60;;;;;;;;;;4833696;29;21479;-69
2022/06/04 07:25:37;;;;;;;4.07;2.93;;;;;;;;;;4824469;29;20611;-67
2022/06/04 07:28:04;;;;;;;6.67;3.57;;;;;;;;;;4857314;29;20209;-67
2022/06/04 07:30:32;;;;;;;6.87;3.90;;;;;;;;;;4861683;29;20665;-67
2022/06/04 07:32:58;;;;;;;8.20;4.17;;;;;;;;;;4873709;29;20264;-67
2022/06/04 07:35:25;;;;;;;8.10;4.17;;;;;;;;;;4861867;29;20598;-65
2022/06/04 07:37:52;;;;;;;6.70;3.80;;;;;;;;;;4857598;29;20675;-67
2022/06/04 07:40:19;;;;;;;8.57;3.50;;;;;;;;;;4856329;29;20642;-66
2022/06/04 07:42:46;;;;;;;6.07;3.53;;;;;;;;;;4852905;29;20214;-65
2022/06/04 07:45:13;;;;;;;8.10;4.37;;;;;;;;;;4844778;29;20724;-66
2022/06/04 07:47:41;;;;;;;6.17;3.93;;;;;;;;;;4852732;29;20210;-65
2022/06/04 07:50:09;;;;;;;8.67;3.83;;;;;;;;;;4842192;29;20197;-65
2022/06/04 07:52:37;;;;;;;5.50;3.80;;;;;;;;;;4850945;29;20198;-66
2022/06/04 07:55:06;;;;;;;6.77;3.40;;;;;;;;;;4838621;29;20198;-66
2022/06/04 07:57:33;;;;;;;6.70;3.73;;;;;;;;;;4870903;29;20271;-66
2022/06/04 08:00:01;;;;;;;6.50;4.00;;;;;;;;;;4873298;29;20233;-65
2022/06/04 08:02:38;;;;;;;6.53;3.50;;;;;;;;;;4861115;29;20212;-65
2022/06/04 08:05:04;;;;;;;3.90;3.50;;;;;;;;;;4849127;29;20300;-68
2022/06/04 08:07:49;;;;;;;8.73;4.10;;;;;;;;;;4863574;29;20180;-65
2022/06/04 08:10:15;;;;;;;5.50;3.60;;;;;;;;;;4865308;29;20657;-65
2022/06/04 08:12:49;;;;;;;6.53;4.33;;;;;;;;;;4861278;29;21017;-66
2022/06/04 08:15:16;;;;;;;8.77;4.70;;;;;;;;;;4874161;29;20227;-66
2022/06/04 08:18:01;;;;;;;6.40;4.67;;;;;;;;;;4849174;29;20185;-67
2022/06/04 08:20:27;;;;;;;8.63;4.90;;;;;;;;;;4870418;29;20197;-66
2022/06/04 08:23:00;;;;;;;9.37;4.60;;;;;;;;;;4859166;29;20201;-66
2022/06/04 08:25:27;;;;;;;8.10;5.37;;;;;;;;;;4852773;29;20220;-65
2022/06/04 08:27:53;;;;;;;11.90;5.07;;;;;;;;;;4860438;29;20267;-65
2022/06/04 08:30:21;;;;;;;9.43;4.97;;;;;;;;;;4868358;29;20295;-66
2022/06/04 08:32:48;;;;;;;8.40;5.10;;;;;;;;;;4868584;29;20219;-64
2022/06/04 08:35:16;;;;;;;8.80;6.07;;;;;;;;;;4857074;29;20227;-66
2022/06/04 08:37:44;;;;;;;9.60;5.93;;;;;;;;;;4847874;29;20201;-68
2022/06/04 08:40:22;;;;;;;8.40;5.37;;;;;;;;;;4847775;29;20206;-74
2022/06/04 08:42:57;;;;;;;6.87;4.93;;;;;;;;;;4852710;29;20203;-64
2022/06/04 08:45:29;;;;;;;8.70;5.40;;;;;;;;;;4856146;29;20227;-64
2022/06/04 08:47:56;;;;;;;7.00;4.43;;;;;;;;;;4859921;29;20281;-66
2022/06/04 08:50:23;;;;;;;9.93;5.37;;;;;;;;;;4863266;29;20201;-65
2022/06/04 08:52:56;;;;;;;8.27;4.60;;;;;;;;;;4859720;29;20269;-64
2022/06/04 08:58:48;;;;;;;7.67;3.83;;;;;;;;;;4840160;29;20230;-64
2022/06/04 09:01:18;;;;;;;6.47;3.90;;;;;;;;;;4861606;29;20268;-66
2022/06/04 09:03:47;;;;;;;6.57;3.30;;;;;;;;;;4857087;29;20218;-64
2022/06/04 09:06:37;;;;;;;7.13;3.13;;;;;;;;;;4854967;29;20912;-72
2022/06/04 09:09:22;;;;;;;6.00;2.83;;;;;;;;;;4870139;29;20237;-65
2022/06/04 09:11:55;;;;;;;7.53;3.60;;;;;;;;;;4826132;29;20291;-68
2022/06/04 09:14:35;;;;;;;5.47;3.30;;;;;;;;;;4871399;29;20220;-69
2022/06/04 09:17:13;;;;;;;8.90;3.43;;;;;;;;;;4853054;29;21003;-65
2022/06/04 09:19:42;;;;;;;4.77;3.57;;;;;;;;;;4857417;29;20240;-67
2022/06/04 09:22:21;;;;;;;7.67;4.00;;;;;;;;;;4872423;29;20193;-67
2022/06/04 09:25:13;;;;;;;5.40;3.40;;;;;;;;;;4878026;29;20246;-67
2022/06/04 09:28:03;;;;;;;7.00;4.10;;;;;;;;;;4876785;29;20209;-67
2022/06/04 09:30:37;;;;;;;6.57;3.57;;;;;;;;;;4864900;29;20213;-66
2022/06/04 09:33:07;;;;;;;4.53;3.50;;;;;;;;;;4858493;29;20712;-67
2022/06/04 09:35:51;;;;;;;6.83;3.67;;;;;;;;;;4866890;29;20220;-67
2022/06/04 09:38:23;;;;;;;8.10;3.73;;;;;;;;;;4866189;29;20223;-67
2022/06/04 09:40:58;;;;;;;8.07;4.00;;;;;;;;;;4864988;29;20232;-67
2022/06/04 09:43:24;;;;;;;5.17;4.20;;;;;;;;;;4855441;29;20294;-68
2022/06/04 09:46:10;;;;;;;6.03;4.77;;;;;;;;;;4853865;29;20189;-68
2022/06/04 09:48:38;;;;;;;6.00;4.20;;;;;;;;;;4847841;29;20193;-68
2022/06/04 09:51:08;;;;;;;7.23;4.40;;;;;;;;;;4852550;29;20209;-68
2022/06/04 09:53:44;;;;;;;6.53;4.27;;;;;;;;;;4851626;29;20705;-67
2022/06/04 09:56:33;;;;;;;5.93;3.93;;;;;;;;;;4853166;29;20188;-65
2022/06/04 09:59:16;;;;;;;7.67;4.67;;;;;;;;;;4869927;29;20260;-65
2022/06/04 10:02:09;;;;;;;6.63;4.10;;;;;;;;;;4845434;29;20187;-65
2022/06/04 10:04:36;;;;;;;6.90;4.33;;;;;;;;;;4861608;29;20613;-65
2022/06/04 10:07:06;;;;;;;7.63;4.43;;;;;;;;;;4868359;29;20196;-65
2022/06/04 10:15:30;;;;;;;11.20;4.30;;;;;;;;;;4873487;29;20711;-68
2022/06/04 10:17:58;;;;;;;8.37;4.43;;;;;;;;;;4833309;29;20205;-67
2022/06/04 10:20:25;;;;;;;5.07;4.07;;;;;;;;;;4838693;29;20205;-65
2022/06/04 10:22:52;;;;;;;5.67;4.40;;;;;;;;;;4854745;29;20208;-67
2022/06/04 10:25:58;;;;;;;6.17;4.60;;;;;;;;;;4859805;29;20551;-67
2022/06/04 10:28:29;;;;;;;6.97;5.00;;;;;;;;;;4831596;29;20566;-66
2022/06/04 10:31:32;;;;;;;9.27;4.33;;;;;;;;;;4851049;29;20177;-66
2022/06/04 10:34:03;;;;;;;5.60;4.90;;;;;;;;;;4851280;29;20276;-67
2022/06/04 10:36:36;;;;;;;9.00;4.73;;;;;;;;;;4851208;29;20311;-68
2022/06/04 10:39:13;;;;;;;8.00;5.50;;;;;;;;;;4833782;29;20217;-66
2022/06/04 10:42:00;;;;;;;9.50;5.80;;;;;;;;;;4841769;29;20332;-65
2022/06/04 10:44:33;;;;;;;8.00;5.80;;;;;;;;;;4853438;29;20312;-67
2022/06/04 10:47:18;;;;;;;8.17;5.17;;;;;;;;;;4837194;29;20189;-66
2022/06/04 10:49:50;;;;;;;6.30;5.57;;;;;;;;;;4853766;29;20548;-67
2022/06/04 10:52:22;;;;;;;6.43;5.47;;;;;;;;;;4837682;29;20200;-67
2022/06/04 10:55:09;;;;;;;9.30;5.37;;;;;;;;;;4833869;29;20216;-65
2022/06/04 10:57:55;;;;;;;6.93;5.07;;;;;;;;;;4836096;29;20212;-65
2022/06/04 11:00:34;;;;;;;7.87;5.33;;;;;;;;;;4851612;29;20227;-66
2022/06/04 11:03:03;;;;;;;6.07;4.93;;;;;;;;;;4836799;29;20323;-69
2022/06/04 11:05:49;;;;;;;10.90;4.27;;;;;;;;;;4851677;29;20230;-68
2022/06/04 11:08:37;;;;;;;7.60;4.63;;;;;;;;;;4829356;29;20181;-68
2022/06/04 11:11:10;;;;;;;6.73;4.93;;;;;;;;;;4837373;29;20200;-70
2022/06/04 11:13:39;;;;;;;9.00;5.10;;;;;;;;;;4854611;29;20543;-70
2022/06/04 11:16:27;;;;;;;7.70;4.87;;;;;;;;;;4850760;29;20197;-69
2022/06/04 11:19:20;;;;;;;6.70;6.00;;;;;;;;;;4840320;29;20254;-69
2022/06/04 11:21:56;;;;;;;7.70;6.30;;;;;;;;;;4843753;29;20297;-67
2022/06/04 11:24:41;;;;;;;8.47;7.03;;;;;;;;;;4851546;29;20995;-67
2022/06/04 11:27:11;;;;;;;8.53;5.97;;;;;;;;;;4862583;29;20669;-66
2022/06/04 11:29:38;;;;;;;6.70;5.50;;;;;;;;;;4867924;29;20675;-65
2022/06/04 11:32:05;;;;;;;7.20;6.00;;;;;;;;;;4833363;29;20301;-65
2022/06/04 11:34:52;;;;;;;6.83;5.47;;;;;;;;;;4867132;29;20207;-66
2022/06/04 11:37:23;;;;;;;8.30;6.60;;;;;;;;;;4857001;29;20205;-66
2022/06/04 11:40:11;;;;;;;10.20;6.23;;;;;;;;;;4861815;29;20201;-64
2022/06/04 11:42:54;;;;;;;6.77;5.70;;;;;;;;;;4871977;29;20197;-64
2022/06/04 11:45:24;;;;;;;6.23;5.07;;;;;;;;;;4860462;29;20724;-64
2022/06/04 11:47:57;;;;;;;8.27;5.90;;;;;;;;;;4862001;29;20257;-64
2022/06/04 11:50:33;;;;;;;7.37;5.57;;;;;;;;;;4849592;29;20197;-66
2022/06/04 11:53:16;;;;;;;7.47;5.37;;;;;;;;;;4854932;29;20181;-64
2022/06/04 11:55:45;;;;;;;9.33;5.70;;;;;;;;;;4862532;29;20300;-64
2022/06/04 11:58:31;;;;;;;9.17;6.03;;;;;;;;;;4865318;29;20220;-64
2022/06/04 12:00:59;;;;;;;8.13;5.03;;;;;;;;;;4875403;29;20228;-66
2022/06/04 12:03:38;;;;;;;8.17;5.40;;;;;;;;;;4844469;29;20194;-70
2022/06/04 12:06:05;;;;;;;7.33;5.27;;;;;;;;;;4862862;29;20217;-68
2022/06/04 12:08:35;;;;;;;5.67;5.07;;;;;;;;;;4848009;29;20943;-56
2022/06/04 12:11:07;;;;;;;8.50;5.47;;;;;;;;;;4873160;29;20249;-60
2022/06/04 12:13:33;;;;;;;7.53;5.17;;;;;;;;;;4856038;29;20201;-57
2022/06/04 12:16:12;;;;;;;7.47;4.60;;;;;;;;;;4861735;29;20205;-57
2022/06/04 12:18:58;;;;;;;5.93;5.30;;;;;;;;;;4856303;29;20201;-57
2022/06/04 12:24:22;;;;;;;6.10;5.00;;;;;;;;;;4846371;29;20241;-57
2022/06/04 12:26:49;;;;;;;5.37;4.77;;;;;;;;;;4861850;29;20208;-58
2022/06/04 12:29:28;;;;;;;7.03;5.10;;;;;;;;;;4869627;29;20915;-58
2022/06/04 12:32:04;;;;;;;7.53;5.60;;;;;;;;;;4850496;29;20193;-58
2022/06/04 12:34:34;;;;;;;6.10;5.50;;;;;;;;;;4860892;29;20937;-59
2022/06/04 12:37:01;;;;;;;7.07;5.63;;;;;;;;;;4850421;29;20200;-69
2022/06/04 12:39:29;;;;;;;6.70;5.10;;;;;;;;;;4849535;29;20186;-69
2022/06/04 12:41:57;;;;;;;8.13;6.03;;;;;;;;;;4844732;29;20332;-69
2022/06/04 12:44:26;;;;;;;7.47;5.80;;;;;;;;;;4867705;29;20208;-67
2022/06/04 12:46:53;;;;;;;6.87;5.60;;;;;;;;;;4832803;29;20246;-67
2022/06/04 12:49:20;;;;;;;6.97;4.90;;;;;;;;;;4870158;29;20280;-68
2022/06/04 12:51:48;;;;;;;7.27;5.70;;;;;;;;;;4857368;29;20280;-67
2022/06/04 12:54:34;;;;;;;5.90;4.60;;;;;;;;;;4841640;29;20205;-67
2022/06/04 12:57:04;;;;;;;7.03;5.00;;;;;;;;;;4850206;29;20320;-67
2022/06/04 12:59:43;;;;;;;6.40;5.13;;;;;;;;;;4850340;29;20732;-67
2022/06/04 13:02:29;;;;;;;7.07;4.63;;;;;;;;;;4844232;29;20549;-68
2022/06/04 13:05:08;;;;;;;5.90;4.57;;;;;;;;;;4842338;29;20273;-68
2022/06/04 13:08:00;;;;;;;6.93;5.03;;;;;;;;;;4851627;29;20201;-67
2022/06/04 13:10:48;;;;;;;6.87;4.60;;;;;;;;;;4812034;29;20293;-67
2022/06/04 13:13:32;;;;;;;6.37;5.07;;;;;;;;;;4870442;29;20219;-67
2022/06/04 13:16:04;;;;;;;5.30;4.80;;;;;;;;;;4851118;29;20261;-68
2022/06/04 13:18:37;;;;;;;6.90;5.23;;;;;;;;;;4846913;29;20210;-67
2022/06/04 13:21:06;;;;;;;7.13;5.33;;;;;;;;;;4868626;29;20261;-68
2022/06/04 13:23:58;;;;;;;6.20;4.97;;;;;;;;;;4848905;29;20189;-67
2022/06/04 13:26:31;;;;;;;6.90;5.03;;;;;;;;;;4828207;29;20227;-67
2022/06/04 13:29:01;;;;;;;5.50;4.90;;;;;;;;;;4853626;29;20220;-67
2022/06/04 13:31:29;;;;;;;6.27;5.30;;;;;;;;;;4871167;29;20599;-67
2022/06/04 13:33:58;;;;;;;7.10;5.10;;;;;;;;;;4868584;29;20261;-67
2022/06/04 13:36:25;;;;;;;8.27;5.00;;;;;;;;;;4859615;29;20202;-68
2022/06/04 13:38:56;;;;;;;6.80;5.10;;;;;;;;;;4833771;29;20209;-67
2022/06/04 13:44:29;;;;;;;5.20;4.20;;;;;;;;;;4814116;29;20252;-68
2022/06/04 13:47:39;;;;;;;6.63;4.60;;;;;;;;;;4807978;29;20666;-67
2022/06/04 13:50:06;;;;;;;6.43;4.60;;;;;;;;;;4782200;29;20200;-68
2022/06/04 13:52:53;;;;;;;8.87;4.47;;;;;;;;;;4784623;29;20775;-68
2022/06/04 13:55:40;;;;;;;6.80;4.97;;;;;;;;;;4810436;29;20195;-68
2022/06/04 13:58:08;;;;;;;5.70;5.10;;;;;;;;;;4821208;29;20671;-68
2022/06/04 14:00:37;;;;;;;5.57;4.67;;;;;;;;;;4826099;29;20281;-67
2022/06/04 14:03:09;;;;;;;7.83;5.17;;;;;;;;;;4815618;29;20306;-68
2022/06/04 14:05:54;;;;;;;5.73;4.40;;;;;;;;;;4835263;29;20705;-68
2022/06/04 14:08:25;;;;;;;5.47;4.10;;;;;;;;;;4826264;29;20241;-69
2022/06/04 14:11:02;;;;;;;6.00;4.10;;;;;;;;;;4823750;29;20263;-68
2022/06/04 14:13:48;;;;;;;6.97;4.90;;;;;;;;;;4825882;29;20218;-69
2022/06/04 14:16:33;;;;;;;5.87;3.90;;;;;;;;;;4815425;29;20566;-69
2022/06/04 14:19:04;;;;;;;5.83;4.10;;;;;;;;;;4824178;29;20209;-69
2022/06/04 14:21:30;;;;;;;5.17;3.77;;;;;;;;;;4821847;29;20213;-70
2022/06/04 14:24:19;;;;;;;5.13;4.23;;;;;;;;;;4826050;29;20786;-69
2022/06/04 14:27:22;;;;;;;5.70;4.20;;;;;;;;;;4820746;29;20195;-69
2022/06/04 14:29:55;;;;;;;5.67;3.90;;;;;;;;;;4841707;29;20234;-70
2022/06/04 14:32:29;;;;;;;7.80;3.63;;;;;;;;;;4834958;29;20317;-69
2022/06/04 14:34:57;;;;;;;4.97;3.90;;;;;;;;;;4823787;29;20666;-68
2022/06/04 14:37:25;;;;;;;5.77;3.53;;;;;;;;;;4804900;29;20308;-69
2022/06/04 14:39:52;;;;;;;4.93;3.80;;;;;;;;;;4828202;29;20199;-69
2022/06/04 14:42:28;;;;;;;10.57;4.00;;;;;;;;;;4831761;29;20257;-69
2022/06/04 14:45:01;;;;;;;5.30;4.00;;;;;;;;;;4817343;29;20217;-70
2022/06/04 14:47:34;;;;;;;6.10;4.20;;;;;;;;;;4832544;29;20203;-69
2022/06/04 14:50:05;;;;;;;5.53;4.30;;;;;;;;;;4836040;29;20988;-69
2022/06/04 14:52:51;;;;;;;5.63;3.90;;;;;;;;;;4832296;29;20206;-69
2022/06/04 14:55:19;;;;;;;5.07;4.03;;;;;;;;;;4834144;29;20200;-68
2022/06/04 14:58:15;;;;;;;4.80;4.07;;;;;;;;;;4819485;29;20578;-68
2022/06/04 15:01:11;;;;;;;5.27;4.33;;;;;;;;;;4816779;29;20170;-68
2022/06/04 15:04:09;;;;;;;10.27;8.10;;;;;;;;;;4816350;29;20205;-68
2022/06/04 15:06:48;;;;;;;6.73;4.77;;;;;;;;;;4831822;29;20799;-68
2022/06/04 15:09:18;;;;;;;6.27;4.20;;;;;;;;;;4827791;29;20190;-68
2022/06/04 15:12:09;;;;;;;7.17;4.10;;;;;;;;;;4818308;29;20543;-69
2022/06/04 15:14:43;;;;;;;5.13;4.27;;;;;;;;;;4834552;29;20198;-69
2022/06/04 15:17:11;;;;;;;5.33;4.17;;;;;;;;;;4826003;29;20282;-69
2022/06/04 15:19:37;;;;;;;7.03;4.10;;;;;;;;;;4822766;29;20689;-68
2022/06/04 15:22:14;;;;;;;5.83;4.50;;;;;;;;;;4824944;29;20199;-68
2022/06/04 15:24:56;;;;;;;6.20;4.60;;;;;;;;;;4835727;29;20197;-68
2022/06/04 15:27:27;;;;;;;6.47;4.40;;;;;;;;;;4824843;29;20202;-68
2022/06/04 15:36:16;;;;;;;8.03;4.60;;;;;;;;;;4825135;29;20209;-68
2022/06/04 15:38:49;;;;;;;5.47;4.00;;;;;;;;;;4816745;29;20198;-68